Richmond International Airport
KRIC : now visible

Airfield :











YOU CAN JOIN US ON...

 
LOGIN :

Register | Disclaimer

   EN    FR    IT 

 









Legend :    VFR   Marginal VFR   IFR   Intensive IFR   Very Intensive IFR
Visi :
Ceiling :
>= 8 km
>= 3000ft
5 to 8 km
1000 to 3000 ft
1500m to 5 km
500 to 1000 ft
800 to 1500m
200 to 500 ft
< 800m
< 200 ft
Symbols :   Thunderstorms  Fog  Heavy snow  Heavy precipitations  Wind > 20 kt






- Airport Elevation : 167 ft
- IATA code : RIC


KRIC - Richmond International

CURRENT METAR :
  • 061554Z 21010KT 10SM FEW120 OVC250 11/M01 A3017 RMK AO2 SLP223 T01061006 $

EXPIRED METARs :
  • 061454Z 19008KT 10SM FEW130 BKN150 07/00 A3019 RMK AO2 SLP229 T00670000 51001 $
  • 061354Z 00000KT 10SM SCT150 BKN210 BKN240 03/00 A3019 RMK AO2 SLP229 T00330000

TAF KRIC
Valid from the 06 at 12:00 until the 07 at 12:00 UTC


061120Z 0612/0712 20004KT P6SM SCT150
FM061500 21010KT P6SM BKN150
FM062000 28012KT P6SM BKN060
FM070400 34007KT P6SM SCT080



MET'MAP, your aeronautical weather chart ! - Copyright ORBIFLY December 2007 - Disclaimer

ORBIFLY MET'MAP TEAM :

Programming & Development : Alexandra Zaïnal
Concept & original design : Baudouin d'Aumeries
Assistance for programming : Marc-Olivier Méhu
Technical & hardware support : Manuel Goepfert

Contact : metmap@orbifly.com




SOURCES & CREDITS :

   NOAA       Earth
Advisory